Time;durP1;ratioP1;P1;durP2;ratioP2;P2;SDS_P1;SDS_P2;PMS_P1;PMS_P2;Temp;Humidity;BMP_temperature;BMP_pressure;BME280_temperature;BME280_humidity;BME280_pressure;Samples;Min_cycle;Max_cycle;Signal;HPM_P1;HPM_P2
2022/11/26 00:00:59;;;;;;;19.05;6.63;;;8.40;88.20;;;;;;5116993;28;20032;-73
2022/11/26 00:03:25;;;;;;;17.02;6.55;;;8.40;88.30;;;;;;5115906;28;20039;-73
2022/11/26 00:05:53;;;;;;;17.23;6.15;;;8.40;88.40;;;;;;5117022;28;20052;-74
2022/11/26 00:08:28;;;;;;;16.92;6.18;;;8.30;88.60;;;;;;5116702;28;20085;-73
2022/11/26 00:10:54;;;;;;;14.25;5.90;;;8.30;88.90;;;;;;5116804;28;20463;-73
2022/11/26 00:13:23;;;;;;;13.98;6.70;;;8.30;89.20;;;;;;5115757;28;20031;-73
2022/11/26 00:15:50;;;;;;;11.68;6.03;;;8.30;89.20;;;;;;5116810;28;20012;-73
2022/11/26 00:18:17;;;;;;;12.65;6.22;;;8.30;89.40;;;;;;5115495;28;20044;-73
2022/11/26 00:20:43;;;;;;;16.67;6.25;;;8.20;89.30;;;;;;5116738;28;20039;-73
2022/11/26 00:23:19;;;;;;;15.75;5.80;;;8.20;89.50;;;;;;5116575;28;20036;-74
2022/11/26 00:25:48;;;;;;;19.15;7.10;;;8.20;89.70;;;;;;5116551;28;20028;-73
2022/11/26 00:28:25;;;;;;;19.42;8.07;;;8.20;89.70;;;;;;5116388;28;20020;-73
2022/11/26 00:30:52;;;;;;;19.10;6.38;;;8.20;90.30;;;;;;5116599;28;20042;-73
2022/11/26 00:33:17;;;;;;;14.68;5.90;;;8.20;89.70;;;;;;5116370;28;20113;-73
2022/11/26 00:35:45;;;;;;;12.63;6.30;;;8.20;89.70;;;;;;5116354;28;20024;-73
2022/11/26 00:38:17;;;;;;;14.52;5.70;;;8.20;89.70;;;;;;5116271;28;20430;-73
2022/11/26 00:40:43;;;;;;;12.10;6.35;;;8.20;89.70;;;;;;5116408;28;20024;-73
2022/11/26 00:43:14;;;;;;;16.85;6.03;;;8.10;89.90;;;;;;5116180;28;20028;-73
2022/11/26 00:45:39;;;;;;;19.25;6.72;;;8.10;89.80;;;;;;5114490;28;20504;-73
2022/11/26 00:48:05;;;;;;;14.40;6.78;;;8.10;89.70;;;;;;5116010;28;20055;-73
2022/11/26 00:50:46;;;;;;;20.23;6.97;;;8.10;89.50;;;;;;5115132;28;20026;-73
2022/11/26 00:53:15;;;;;;;18.35;6.15;;;8.20;89.50;;;;;;5116030;28;20024;-73
2022/11/26 00:55:44;;;;;;;16.05;6.22;;;8.10;89.30;;;;;;5115936;28;20024;-73
2022/11/26 00:58:27;;;;;;;19.38;6.43;;;8.10;89.50;;;;;;5115866;28;20088;-73
2022/11/26 01:00:55;;;;;;;14.75;5.72;;;8.10;89.50;;;;;;5115869;28;20032;-74
2022/11/26 01:03:21;;;;;;;17.33;6.78;;;8.10;89.40;;;;;;5114749;28;20020;-73
2022/11/26 01:05:53;;;;;;;20.77;7.00;;;8.10;89.30;;;;;;5115745;28;20028;-74
2022/11/26 01:08:34;;;;;;;12.98;6.63;;;8.00;89.20;;;;;;5115552;28;20020;-73
2022/11/26 01:11:02;;;;;;;17.85;6.47;;;8.00;89.20;;;;;;5114611;28;20028;-73
2022/11/26 01:13:28;;;;;;;16.85;6.28;;;8.00;89.20;;;;;;5115511;28;20024;-73
2022/11/26 01:15:58;;;;;;;17.17;5.88;;;8.00;89.10;;;;;;5115547;28;20050;-73
2022/11/26 01:18:24;;;;;;;12.52;6.22;;;8.00;89.00;;;;;;5115266;28;20052;-74
2022/11/26 01:20:50;;;;;;;14.50;5.88;;;8.00;88.90;;;;;;5115420;28;20036;-73
2022/11/26 01:23:18;;;;;;;21.83;7.57;;;8.00;88.90;;;;;;5115403;28;20076;-73
2022/11/26 01:25:45;;;;;;;14.68;5.97;;;7.90;89.00;;;;;;5115350;28;20032;-74
2022/11/26 01:28:12;;;;;;;14.85;5.82;;;7.90;88.90;;;;;;5115226;28;20074;-73
2022/11/26 01:30:39;;;;;;;17.05;5.88;;;7.90;89.00;;;;;;5115226;28;20050;-73
2022/11/26 01:33:05;;;;;;;15.15;6.68;;;7.90;89.00;;;;;;5115211;28;20028;-73
2022/11/26 01:35:31;;;;;;;19.33;6.57;;;7.80;88.90;;;;;;5114112;28;20043;-73
2022/11/26 01:37:57;;;;;;;14.07;6.00;;;7.80;89.00;;;;;;5115088;28;20038;-73
2022/11/26 01:40:25;;;;;;;12.25;6.38;;;7.70;88.90;;;;;;5115081;28;20042;-73
2022/11/26 01:43:02;;;;;;;12.55;6.32;;;7.70;89.00;;;;;;5115005;28;20028;-73
2022/11/26 01:45:27;;;;;;;17.77;6.55;;;7.70;89.00;;;;;;5115119;28;20020;-73
2022/11/26 01:47:53;;;;;;;18.17;6.03;;;7.70;88.90;;;;;;5114971;28;20074;-73
2022/11/26 01:50:30;;;;;;;15.27;6.13;;;7.70;89.00;;;;;;5113899;28;20065;-73
2022/11/26 01:53:11;;;;;;;14.60;5.82;;;7.60;88.70;;;;;;5114026;28;20047;-73
2022/11/26 01:55:48;;;;;;;13.88;5.60;;;7.60;88.40;;;;;;5095981;28;20035;-73
2022/11/26 01:58:18;;;;;;;14.52;6.60;;;7.40;88.00;;;;;;5113728;28;20097;-73
2022/11/26 02:00:45;;;;;;;12.98;6.20;;;7.40;88.40;;;;;;5114837;28;20024;-73
2022/11/26 02:03:11;;;;;;;14.82;6.90;;;7.30;88.40;;;;;;5114768;28;20028;-73
2022/11/26 02:05:46;;;;;;;15.75;6.65;;;7.30;88.70;;;;;;5114736;28;20020;-74
2022/11/26 02:08:12;;;;;;;14.10;5.88;;;7.40;88.80;;;;;;5114428;28;20028;-73
2022/11/26 02:10:38;;;;;;;15.65;6.10;;;7.30;88.40;;;;;;5114493;28;20016;-73
2022/11/26 02:13:04;;;;;;;16.30;5.80;;;7.30;88.20;;;;;;5114413;28;20028;-73
2022/11/26 02:15:41;;;;;;;13.93;6.50;;;7.20;88.10;;;;;;5114533;28;20027;-73
2022/11/26 02:18:08;;;;;;;15.40;5.93;;;7.10;88.20;;;;;;5114282;28;20130;-74
2022/11/26 02:21:03;;;;;;;12.57;6.28;;;7.10;88.70;;;;;;5114320;28;20036;-73
2022/11/26 02:24:06;;;;;;;14.23;5.75;;;7.10;88.80;;;;;;5103288;28;20035;-73
2022/11/26 02:27:03;;;;;;;18.27;7.05;;;7.10;90.00;;;;;;5114291;28;20032;-73
2022/11/26 02:29:46;;;;;;;14.48;6.05;;;7.10;90.20;;;;;;5113949;28;20047;-73
2022/11/26 02:32:21;;;;;;;28.13;7.43;;;7.00;89.80;;;;;;5113183;28;20026;-73
2022/11/26 02:34:57;;;;;;;17.33;7.10;;;7.10;90.20;;;;;;5114106;28;20017;-73
2022/11/26 02:37:36;;;;;;;14.23;6.93;;;7.10;90.20;;;;;;5114070;28;20032;-73
2022/11/26 02:40:02;;;;;;;13.38;6.45;;;7.10;90.30;;;;;;5114170;28;20020;-73
2022/11/26 02:42:32;;;;;;;16.48;6.70;;;7.10;90.20;;;;;;5113889;28;20420;-73
2022/11/26 02:45:06;;;;;;;16.52;7.75;;;7.10;90.20;;;;;;5114172;28;20017;-73
2022/11/26 02:47:34;;;;;;;17.50;7.38;;;7.10;90.20;;;;;;5112950;28;20114;-73
2022/11/26 02:50:06;;;;;;;15.13;6.47;;;7.10;90.20;;;;;;5113752;28;20024;-73
2022/11/26 02:52:34;;;;;;;18.42;6.57;;;7.20;90.20;;;;;;5113994;28;20016;-73
2022/11/26 02:55:02;;;;;;;19.60;6.95;;;7.20;90.20;;;;;;5113754;28;20027;-73
2022/11/26 02:57:31;;;;;;;17.63;7.03;;;7.10;90.30;;;;;;5113676;28;20027;-73
2022/11/26 02:59:57;;;;;;;20.20;7.18;;;7.10;90.20;;;;;;5112742;28;20054;-73
2022/11/26 03:02:28;;;;;;;16.90;6.55;;;7.10;90.10;;;;;;5112690;28;20035;-73
2022/11/26 03:04:58;;;;;;;14.60;6.32;;;7.00;90.20;;;;;;5113812;28;20024;-73
2022/11/26 03:07:25;;;;;;;18.52;6.63;;;6.90;90.30;;;;;;5113388;28;20083;-73
2022/11/26 03:09:57;;;;;;;13.50;6.47;;;7.00;90.20;;;;;;5113590;28;20035;-73
2022/11/26 03:12:23;;;;;;;15.05;6.32;;;7.00;90.30;;;;;;5113601;28;20043;-73
2022/11/26 03:14:49;;;;;;;16.23;6.68;;;7.00;90.60;;;;;;5112496;28;20020;-73
2022/11/26 03:17:15;;;;;;;15.50;7.13;;;7.00;90.30;;;;;;5113657;28;20090;-73
2022/11/26 03:19:41;;;;;;;14.13;7.25;;;7.10;90.30;;;;;;5113324;28;20059;-73
2022/11/26 03:22:07;;;;;;;16.95;6.82;;;7.00;90.30;;;;;;5113472;28;20028;-73
2022/11/26 03:24:32;;;;;;;16.50;7.65;;;7.10;90.30;;;;;;5112386;28;20036;-73
2022/11/26 03:26:58;;;;;;;17.60;6.57;;;7.10;90.20;;;;;;5113538;28;20051;-73
2022/11/26 03:29:24;;;;;;;17.75;6.50;;;7.00;90.20;;;;;;5113331;28;20028;-73
2022/11/26 03:31:49;;;;;;;11.52;6.68;;;7.00;90.20;;;;;;5113354;28;20028;-73
2022/11/26 03:34:15;;;;;;;14.90;6.43;;;6.90;90.00;;;;;;5113374;28;20024;-73
2022/11/26 03:36:40;;;;;;;13.98;6.68;;;6.80;90.10;;;;;;5113314;28;20024;-73
2022/11/26 03:39:06;;;;;;;17.63;6.80;;;6.80;90.40;;;;;;5113462;28;20088;-73
2022/11/26 03:41:32;;;;;;;14.63;6.93;;;6.80;90.40;;;;;;5113267;28;20032;-73
2022/11/26 03:43:57;;;;;;;21.30;7.35;;;6.70;90.40;;;;;;5112395;28;20032;-73
2022/11/26 03:46:23;;;;;;;18.50;7.20;;;6.70;90.80;;;;;;5112335;28;20032;-73
2022/11/26 03:48:49;;;;;;;13.70;7.05;;;6.80;90.40;;;;;;5113151;28;20028;-73
2022/11/26 03:51:14;;;;;;;16.65;6.57;;;6.80;90.30;;;;;;5113153;28;20020;-73
2022/11/26 03:53:40;;;;;;;15.65;6.75;;;6.70;90.20;;;;;;5113193;28;20021;-73
2022/11/26 03:56:06;;;;;;;15.85;7.18;;;6.70;90.40;;;;;;5113118;28;20035;-73
2022/11/26 03:58:32;;;;;;;15.15;6.78;;;6.70;90.50;;;;;;5113153;28;20028;-73
2022/11/26 04:00:58;;;;;;;15.77;6.93;;;6.70;90.50;;;;;;5113093;28;20075;-73
2022/11/26 04:03:24;;;;;;;13.48;6.05;;;6.60;90.50;;;;;;5113071;28;20036;-73
2022/11/26 04:05:49;;;;;;;18.30;6.55;;;6.60;90.50;;;;;;5112212;28;20028;-73
2022/11/26 04:08:15;;;;;;;12.38;6.93;;;6.60;90.60;;;;;;5111976;28;20032;-73
2022/11/26 04:10:40;;;;;;;17.13;6.25;;;6.60;90.40;;;;;;5113134;28;20040;-73
2022/11/26 04:13:06;;;;;;;15.48;6.65;;;6.60;90.40;;;;;;5112990;28;20036;-73
2022/11/26 04:15:32;;;;;;;16.33;6.97;;;6.60;90.40;;;;;;5113122;28;20051;-73
2022/11/26 04:17:58;;;;;;;16.33;6.32;;;6.50;90.50;;;;;;5112727;28;20033;-73
2022/11/26 04:20:23;;;;;;;17.40;7.25;;;6.50;90.60;;;;;;5114517;28;20043;-73
2022/11/26 04:22:49;;;;;;;21.80;7.07;;;6.50;90.70;;;;;;5116623;28;20043;-73
2022/11/26 04:25:15;;;;;;;19.38;6.68;;;6.50;90.70;;;;;;5116687;28;20050;-73
2022/11/26 04:27:40;;;;;;;18.30;6.88;;;6.50;90.70;;;;;;5116511;28;20020;-73
2022/11/26 04:30:07;;;;;;;20.45;6.10;;;6.50;90.60;;;;;;5115578;28;20095;-73
2022/11/26 04:32:32;;;;;;;21.83;6.93;;;6.40;90.70;;;;;;5116412;28;20031;-73
2022/11/26 04:34:58;;;;;;;17.05;7.32;;;6.40;90.70;;;;;;5116488;28;20087;-73
2022/11/26 04:37:24;;;;;;;14.75;6.45;;;6.40;90.60;;;;;;5115391;28;20024;-73
2022/11/26 04:39:49;;;;;;;20.30;7.75;;;6.40;90.60;;;;;;5116300;28;20103;-73
2022/11/26 04:42:15;;;;;;;22.85;6.35;;;6.40;90.90;;;;;;5116386;28;20525;-73
2022/11/26 04:44:40;;;;;;;24.60;7.55;;;6.30;90.80;;;;;;5115250;28;20048;-73
2022/11/26 04:47:06;;;;;;;22.20;7.43;;;6.30;91.00;;;;;;5115129;28;20099;-73
2022/11/26 04:49:32;;;;;;;16.73;6.55;;;6.30;91.10;;;;;;5116003;28;20028;-73
2022/11/26 04:51:57;;;;;;;16.75;6.53;;;6.30;91.30;;;;;;5116034;28;20028;-73
2022/11/26 04:54:23;;;;;;;17.98;7.03;;;6.20;91.20;;;;;;5115201;28;20024;-73
2022/11/26 04:56:48;;;;;;;17.65;6.43;;;6.20;91.30;;;;;;5115981;28;20066;-73
2022/11/26 04:59:15;;;;;;;18.40;6.70;;;6.20;91.40;;;;;;5114994;28;20383;-73
2022/11/26 05:01:40;;;;;;;26.25;7.05;;;6.20;91.60;;;;;;5114907;28;20038;-73
2022/11/26 05:04:06;;;;;;;21.75;6.85;;;6.20;91.80;;;;;;5115788;28;20055;-73
2022/11/26 05:06:32;;;;;;;12.80;6.93;;;6.20;91.80;;;;;;5115757;28;20039;-73
2022/11/26 05:08:57;;;;;;;19.55;7.70;;;6.20;92.00;;;;;;5114695;28;20035;-73
2022/11/26 05:11:23;;;;;;;13.75;6.32;;;6.20;91.90;;;;;;5115668;28;20016;-73
2022/11/26 05:13:49;;;;;;;17.80;6.90;;;6.20;92.00;;;;;;5115620;28;20020;-73
2022/11/26 05:16:14;;;;;;;21.33;7.05;;;6.20;92.00;;;;;;5115584;28;20020;-73
2022/11/26 05:18:40;;;;;;;18.40;6.97;;;6.20;92.10;;;;;;5114402;28;20086;-74
2022/11/26 05:21:06;;;;;;;16.20;7.18;;;6.20;92.00;;;;;;5114531;28;20036;-73
2022/11/26 05:23:31;;;;;;;23.63;8.40;;;6.10;92.10;;;;;;5115439;28;20035;-73
2022/11/26 05:25:57;;;;;;;24.25;7.25;;;6.10;92.00;;;;;;5115378;28;20032;-73
2022/11/26 05:28:22;;;;;;;18.23;8.15;;;6.10;92.10;;;;;;5115253;28;20043;-73
2022/11/26 05:30:48;;;;;;;20.80;6.63;;;6.10;92.20;;;;;;5114212;28;20026;-73
2022/11/26 05:33:14;;;;;;;22.50;6.88;;;6.10;92.30;;;;;;5114284;28;20057;-73
2022/11/26 05:35:39;;;;;;;21.50;7.22;;;6.10;92.40;;;;;;5115175;28;20028;-73
2022/11/26 05:38:05;;;;;;;23.92;8.07;;;6.00;92.30;;;;;;5115126;28;20025;-73
2022/11/26 05:40:31;;;;;;;20.63;7.95;;;6.00;92.50;;;;;;5115069;28;20016;-73
2022/11/26 05:42:56;;;;;;;26.73;8.65;;;6.00;92.80;;;;;;5114034;28;20482;-73
2022/11/26 05:45:22;;;;;;;20.90;7.53;;;6.10;92.70;;;;;;5113996;28;20028;-73
2022/11/26 05:47:47;;;;;;;24.33;7.90;;;6.10;92.60;;;;;;5115007;28;20034;-73
2022/11/26 05:50:14;;;;;;;21.83;8.73;;;6.10;92.70;;;;;;5114905;28;20028;-73
2022/11/26 05:52:40;;;;;;;16.35;7.65;;;6.10;92.50;;;;;;5114041;28;20024;-73
2022/11/26 05:55:06;;;;;;;23.00;9.68;;;6.10;92.70;;;;;;5113874;28;20032;-73
2022/11/26 05:57:31;;;;;;;21.30;8.65;;;6.10;92.70;;;;;;5114907;28;20016;-73
2022/11/26 05:59:57;;;;;;;22.65;8.40;;;6.10;92.50;;;;;;5114721;28;20495;-73
2022/11/26 06:02:23;;;;;;;27.67;8.98;;;6.10;92.60;;;;;;5114655;28;20032;-73
2022/11/26 06:04:48;;;;;;;18.17;8.10;;;6.10;92.40;;;;;;5114628;28;20054;-73
2022/11/26 06:07:14;;;;;;;25.98;8.75;;;6.00;92.20;;;;;;5114557;28;20036;-73
2022/11/26 06:09:39;;;;;;;20.48;8.07;;;6.00;92.30;;;;;;5096539;28;20078;-73
2022/11/26 06:12:05;;;;;;;21.33;8.77;;;5.90;92.30;;;;;;5114474;28;20050;-73
2022/11/26 06:14:31;;;;;;;20.67;8.75;;;5.90;92.50;;;;;;5114411;28;20028;-73
2022/11/26 06:16:56;;;;;;;20.90;8.55;;;5.90;92.40;;;;;;5113446;28;20052;-73
2022/11/26 06:19:22;;;;;;;23.98;9.38;;;5.90;92.50;;;;;;5113222;28;20056;-73
2022/11/26 06:21:48;;;;;;;23.02;8.85;;;5.90;92.50;;;;;;5114319;28;20020;-73
2022/11/26 06:24:13;;;;;;;19.10;8.43;;;5.90;92.50;;;;;;5113261;28;20036;-73
2022/11/26 06:26:39;;;;;;;19.33;8.05;;;5.90;92.50;;;;;;5113286;28;20020;-73
2022/11/26 06:29:05;;;;;;;21.63;8.63;;;5.90;92.40;;;;;;5113172;28;20402;-73
2022/11/26 06:31:31;;;;;;;22.10;8.02;;;5.90;92.40;;;;;;5113291;28;20027;-73
2022/11/26 06:33:58;;;;;;;24.13;8.35;;;5.90;92.50;;;;;;5114074;28;20028;-73
2022/11/26 06:36:24;;;;;;;15.95;8.07;;;5.90;92.70;;;;;;5113147;28;20091;-73
2022/11/26 06:38:50;;;;;;;21.02;7.63;;;5.90;92.50;;;;;;5114159;28;20029;-73
2022/11/26 06:41:15;;;;;;;26.65;7.97;;;5.80;92.40;;;;;;5112982;28;20059;-73
2022/11/26 06:43:41;;;;;;;27.98;7.85;;;5.80;92.40;;;;;;5113480;28;20079;-73
2022/11/26 06:46:09;;;;;;;15.07;8.02;;;5.80;92.50;;;;;;5112916;28;20043;-73
2022/11/26 06:48:37;;;;;;;18.85;8.93;;;5.80;92.90;;;;;;5112810;28;20020;-73
2022/11/26 06:51:04;;;;;;;20.50;7.97;;;5.80;92.60;;;;;;5113789;28;20032;-73
2022/11/26 06:53:29;;;;;;;17.42;7.95;;;5.80;92.60;;;;;;5113916;28;20027;-73
2022/11/26 06:55:59;;;;;;;16.83;7.53;;;5.80;92.50;;;;;;5112850;28;20024;-73
2022/11/26 06:58:26;;;;;;;20.77;8.18;;;5.80;92.50;;;;;;5113799;28;20016;-73
2022/11/26 07:00:51;;;;;;;24.08;8.10;;;5.80;92.50;;;;;;5113690;28;20036;-73
2022/11/26 07:03:17;;;;;;;19.98;7.45;;;5.80;92.50;;;;;;5113676;28;20103;-73
2022/11/26 07:05:42;;;;;;;19.67;7.45;;;5.70;92.50;;;;;;5113781;28;20035;-73
2022/11/26 07:08:08;;;;;;;23.15;7.78;;;5.70;92.60;;;;;;5095573;28;20031;-73
2022/11/26 07:10:33;;;;;;;19.65;8.73;;;5.70;92.60;;;;;;5113582;28;20036;-73
2022/11/26 07:12:59;;;;;;;23.30;8.15;;;5.70;92.50;;;;;;5095766;28;20028;-73
2022/11/26 07:15:25;;;;;;;22.40;8.32;;;5.70;92.40;;;;;;5113475;28;20028;-73
2022/11/26 07:17:51;;;;;;;14.93;7.57;;;5.70;92.50;;;;;;5113321;28;20056;-74
2022/11/26 07:20:16;;;;;;;20.15;8.23;;;5.70;92.60;;;;;;5113477;28;20028;-73
2022/11/26 07:22:42;;;;;;;15.30;7.53;;;5.70;92.60;;;;;;5112611;28;20028;-73
2022/11/26 07:25:08;;;;;;;19.20;8.10;;;5.70;92.50;;;;;;5112533;28;20028;-73
2022/11/26 07:27:33;;;;;;;19.15;8.32;;;5.70;92.50;;;;;;5113435;28;20043;-73
2022/11/26 07:29:59;;;;;;;20.00;7.80;;;5.70;92.50;;;;;;5112291;28;20039;-73
2022/11/26 07:32:25;;;;;;;12.32;6.82;;;5.70;92.50;;;;;;5113300;28;20036;-73
2022/11/26 07:34:51;;;;;;;17.58;7.30;;;5.70;92.50;;;;;;5113357;28;20042;-73
2022/11/26 07:37:16;;;;;;;16.63;7.00;;;5.70;92.60;;;;;;5112303;28;20020;-73
2022/11/26 07:39:42;;;;;;;16.98;7.38;;;5.70;92.50;;;;;;5113310;28;20028;-73
2022/11/26 07:42:07;;;;;;;16.98;7.60;;;5.70;93.00;;;;;;5112392;28;20028;-73
2022/11/26 07:44:33;;;;;;;23.45;6.97;;;5.70;92.80;;;;;;5113281;28;20087;-73
2022/11/26 07:46:59;;;;;;;16.63;6.90;;;5.80;93.00;;;;;;5112334;28;20031;-73
2022/11/26 07:49:25;;;;;;;13.20;5.82;;;5.80;93.10;;;;;;5113122;28;20028;-73
2022/11/26 07:51:50;;;;;;;17.45;6.80;;;5.80;93.10;;;;;;5113212;28;20040;-73
2022/11/26 07:54:16;;;;;;;16.40;6.35;;;5.80;93.20;;;;;;5113068;28;20020;-73
2022/11/26 07:56:41;;;;;;;21.38;7.00;;;5.80;93.30;;;;;;5117138;28;20025;-73
2022/11/26 07:59:08;;;;;;;20.25;7.10;;;5.90;93.40;;;;;;5116212;28;20030;-73
2022/11/26 08:01:35;;;;;;;19.70;7.15;;;5.90;93.60;;;;;;5117017;28;20031;-73
2022/11/26 08:04:04;;;;;;;16.60;6.28;;;5.90;93.30;;;;;;5116962;28;20118;-73
2022/11/26 08:06:32;;;;;;;16.35;6.80;;;5.90;93.40;;;;;;5116896;28;20023;-73
2022/11/26 08:08:58;;;;;;;18.05;5.72;;;5.90;93.40;;;;;;5116735;28;20024;-73
2022/11/26 08:11:27;;;;;;;18.65;4.78;;;5.90;93.60;;;;;;5116850;28;20026;-72
2022/11/26 08:14:04;;;;;;;22.17;6.32;;;6.00;93.70;;;;;;5116807;28;20012;-73
2022/11/26 08:16:30;;;;;;;16.00;5.72;;;6.00;93.70;;;;;;5116744;28;20016;-73
2022/11/26 08:18:58;;;;;;;16.58;5.47;;;6.00;93.70;;;;;;5116434;28;20059;-72
2022/11/26 08:21:24;;;;;;;16.80;5.70;;;6.10;93.80;;;;;;5116663;28;20054;-73
2022/11/26 08:23:50;;;;;;;15.73;6.07;;;6.10;93.80;;;;;;5116611;28;20025;-73
2022/11/26 08:26:16;;;;;;;15.00;5.97;;;6.20;93.80;;;;;;5115512;28;20051;-73
2022/11/26 08:28:43;;;;;;;21.38;6.05;;;6.20;93.80;;;;;;5116462;28;20020;-73
2022/11/26 08:31:10;;;;;;;19.40;6.18;;;6.30;94.20;;;;;;5116465;28;20020;-73
2022/11/26 08:33:37;;;;;;;11.93;5.47;;;6.30;93.90;;;;;;5116410;28;20020;-73
2022/11/26 08:36:02;;;;;;;18.15;5.93;;;6.40;93.90;;;;;;5115432;28;20526;-73
2022/11/26 08:38:29;;;;;;;14.23;5.88;;;6.50;93.90;;;;;;5116293;28;20028;-73
2022/11/26 08:40:59;;;;;;;18.75;6.20;;;6.70;93.90;;;;;;5116288;28;20563;-73
2022/11/26 08:43:25;;;;;;;15.13;6.00;;;6.90;94.10;;;;;;5115569;28;20107;-73
2022/11/26 08:45:55;;;;;;;18.25;5.18;;;7.20;93.50;;;;;;5116204;28;20032;-73
2022/11/26 08:48:22;;;;;;;13.02;5.07;;;7.40;92.80;;;;;;5115183;28;20020;-72
2022/11/26 08:50:48;;;;;;;13.90;5.75;;;7.60;92.30;;;;;;5116085;28;20020;-73
2022/11/26 08:53:14;;;;;;;13.02;5.47;;;7.50;92.10;;;;;;5116039;28;20036;-73
2022/11/26 08:55:39;;;;;;;12.63;4.68;;;7.40;92.30;;;;;;5115120;28;20021;-73
2022/11/26 08:58:05;;;;;;;14.35;5.28;;;7.30;92.60;;;;;;5115885;28;20035;-73
2022/11/26 09:00:30;;;;;;;11.60;5.15;;;7.30;92.90;;;;;;5116051;28;20021;-73
2022/11/26 09:02:56;;;;;;;18.90;5.22;;;7.30;93.20;;;;;;5115868;28;20032;-73
2022/11/26 09:05:22;;;;;;;16.70;4.95;;;7.30;93.20;;;;;;5114235;28;20028;-73
2022/11/26 09:07:47;;;;;;;16.98;5.55;;;7.30;93.30;;;;;;5115830;28;20080;-73
2022/11/26 09:10:13;;;;;;;16.48;5.53;;;7.30;93.40;;;;;;5115614;28;20035;-73
2022/11/26 09:12:39;;;;;;;14.02;5.78;;;7.30;93.50;;;;;;5115684;28;20028;-73
2022/11/26 09:15:05;;;;;;;12.60;4.40;;;7.30;93.50;;;;;;5114761;28;20042;-73
2022/11/26 09:17:30;;;;;;;12.80;4.75;;;7.30;93.50;;;;;;5115578;28;20475;-73
2022/11/26 09:19:56;;;;;;;15.88;5.47;;;7.30;93.60;;;;;;5115399;28;20074;-73
2022/11/26 09:22:22;;;;;;;16.30;5.32;;;7.30;93.70;;;;;;5114551;28;20040;-73
2022/11/26 09:24:48;;;;;;;25.27;6.05;;;7.30;93.80;;;;;;5115431;28;20020;-73
2022/11/26 09:27:13;;;;;;;18.52;6.55;;;7.30;93.80;;;;;;5115418;28;20023;-73
2022/11/26 09:29:39;;;;;;;14.38;5.88;;;7.30;94.00;;;;;;5115285;28;20032;-73
2022/11/26 09:32:05;;;;;;;16.80;6.00;;;7.30;94.00;;;;;;5115277;28;20035;-73
2022/11/26 09:34:31;;;;;;;16.20;5.88;;;7.40;94.00;;;;;;5114401;28;20032;-73
2022/11/26 09:36:56;;;;;;;15.25;5.78;;;7.30;94.10;;;;;;5114328;28;20027;-73
2022/11/26 09:39:22;;;;;;;14.95;5.85;;;7.40;94.10;;;;;;5114325;28;20536;-73
2022/11/26 09:41:55;;;;;;;15.80;5.53;;;7.40;94.20;;;;;;5115072;28;20032;-73
2022/11/26 09:44:26;;;;;;;17.45;5.38;;;7.40;94.30;;;;;;5115103;28;20356;-73
2022/11/26 09:47:10;;;;;;;20.63;5.78;;;7.40;94.30;;;;;;5115211;28;20028;-73
2022/11/26 09:49:54;;;;;;;12.90;5.43;;;7.50;94.40;;;;;;5114894;28;20028;-73
2022/11/26 09:52:22;;;;;;;17.13;6.25;;;7.50;94.40;;;;;;5115084;28;20417;-73
2022/11/26 09:54:53;;;;;;;20.77;6.00;;;7.50;94.50;;;;;;5114837;28;20020;-73
2022/11/26 09:57:28;;;;;;;20.17;5.97;;;7.50;94.80;;;;;;5113930;28;20044;-73
2022/11/26 09:59:55;;;;;;;19.40;6.57;;;7.50;94.40;;;;;;5114782;28;20028;-73
2022/11/26 10:02:20;;;;;;;25.48;6.10;;;7.60;94.60;;;;;;5114710;28;20044;-73
2022/11/26 10:04:47;;;;;;;18.75;6.43;;;7.60;94.60;;;;;;5114653;28;20053;-73
2022/11/26 10:07:40;;;;;;;16.58;5.53;;;7.60;94.70;;;;;;5114603;28;20036;-73
2022/11/26 10:10:20;;;;;;;15.90;4.43;;;7.70;94.60;;;;;;5114500;28;20043;-73
2022/11/26 10:13:16;;;;;;;16.40;5.18;;;7.70;94.70;;;;;;5114524;28;20027;-73
2022/11/26 10:15:54;;;;;;;19.05;4.63;;;7.80;94.80;;;;;;5114675;28;20474;-74
2022/11/26 10:18:58;;;;;;;16.17;5.35;;;7.80;94.80;;;;;;5113467;28;20060;-73
2022/11/26 10:21:27;;;;;;;16.02;5.07;;;7.90;94.80;;;;;;5114387;28;20025;-73
2022/11/26 10:24:04;;;;;;;21.35;5.43;;;7.90;94.70;;;;;;5113300;28;20095;-73
2022/11/26 10:26:37;;;;;;;15.25;5.55;;;7.90;94.70;;;;;;5114257;28;20398;-73
2022/11/26 10:29:22;;;;;;;14.05;4.65;;;8.00;94.70;;;;;;5114341;28;20020;-73
2022/11/26 10:31:50;;;;;;;17.75;4.35;;;8.00;94.70;;;;;;5114195;28;20028;-73
2022/11/26 10:34:26;;;;;;;14.00;5.15;;;8.10;94.70;;;;;;5114080;28;20020;-73
2022/11/26 10:36:51;;;;;;;10.90;4.28;;;8.10;94.70;;;;;;5114123;28;20024;-74
2022/11/26 10:39:19;;;;;;;15.95;4.78;;;8.20;94.70;;;;;;5113078;28;20439;-73
2022/11/26 10:41:46;;;;;;;15.35;5.03;;;8.20;94.40;;;;;;5114013;28;20087;-73
2022/11/26 10:44:33;;;;;;;13.60;5.13;;;8.30;94.60;;;;;;5114111;28;20052;-74
2022/11/26 10:47:20;;;;;;;15.68;5.45;;;8.30;94.50;;;;;;5113938;28;20028;-73
2022/11/26 10:49:46;;;;;;;14.98;5.07;;;8.30;94.40;;;;;;5112846;28;20031;-73
2022/11/26 10:52:16;;;;;;;19.35;4.78;;;8.40;94.50;;;;;;5113864;28;20020;-74
2022/11/26 10:54:43;;;;;;;12.27;4.80;;;8.40;94.30;;;;;;5112941;28;20020;-74
2022/11/26 10:57:09;;;;;;;15.45;5.22;;;8.40;94.40;;;;;;5112771;28;20009;-73
2022/11/26 10:59:43;;;;;;;14.13;4.25;;;8.50;94.30;;;;;;5113751;28;20057;-73
2022/11/26 11:02:15;;;;;;;12.93;4.50;;;8.50;94.40;;;;;;5113745;28;20111;-74
2022/11/26 11:04:44;;;;;;;12.32;5.15;;;8.60;94.40;;;;;;5113655;28;20054;-74
2022/11/26 11:07:32;;;;;;;17.17;4.80;;;8.70;94.40;;;;;;5113621;28;20151;-74
2022/11/26 11:10:18;;;;;;;19.63;4.75;;;8.70;94.20;;;;;;5113648;28;20032;-74
2022/11/26 11:13:12;;;;;;;12.43;4.93;;;8.70;94.40;;;;;;5113623;28;20020;-74
2022/11/26 11:15:39;;;;;;;15.45;4.20;;;8.70;94.30;;;;;;5112784;28;20029;-74
2022/11/26 11:18:11;;;;;;;12.52;5.32;;;8.70;94.30;;;;;;5113341;28;20048;-74
2022/11/26 11:20:59;;;;;;;18.00;4.57;;;8.70;94.50;;;;;;5113560;28;20016;-74
2022/11/26 11:23:27;;;;;;;13.75;4.68;;;8.80;94.40;;;;;;5113541;28;20050;-74
2022/11/26 11:26:22;;;;;;;18.52;5.43;;;8.80;94.30;;;;;;5112412;28;20063;-74
2022/11/26 11:28:53;;;;;;;12.90;4.55;;;9.00;94.80;;;;;;5107675;28;20032;-73
2022/11/26 11:31:20;;;;;;;19.83;4.70;;;9.10;94.40;;;;;;5117660;28;20016;-73
2022/11/26 11:33:47;;;;;;;16.27;5.07;;;9.10;94.00;;;;;;5117565;28;20027;-74
2022/11/26 11:36:12;;;;;;;15.85;5.13;;;9.20;94.10;;;;;;5117575;28;20024;-74
2022/11/26 11:38:59;;;;;;;11.50;4.75;;;9.30;94.10;;;;;;5117370;28;20024;-74
2022/11/26 11:41:42;;;;;;;13.00;5.10;;;9.40;93.80;;;;;;5117457;28;20035;-74
2022/11/26 11:44:24;;;;;;;20.88;5.47;;;9.60;93.70;;;;;;5117442;28;20439;-73
2022/11/26 11:47:21;;;;;;;12.48;4.80;;;9.70;93.80;;;;;;5117361;28;20024;-73
2022/11/26 11:50:05;;;;;;;11.45;4.72;;;9.80;93.10;;;;;;5117249;28;20020;-73
2022/11/26 11:52:42;;;;;;;16.50;4.95;;;10.00;93.10;;;;;;5116239;28;20024;-74
2022/11/26 11:55:26;;;;;;;11.15;4.97;;;10.10;92.90;;;;;;5116525;28;20032;-74
2022/11/26 11:58:14;;;;;;;13.27;4.88;;;10.20;92.40;;;;;;5117127;28;20046;-74
2022/11/26 12:00:59;;;;;;;21.00;4.75;;;10.30;92.60;;;;;;5117143;28;20090;-74
2022/11/26 12:03:39;;;;;;;10.70;4.00;;;10.30;91.60;;;;;;5116141;28;20024;-74
2022/11/26 12:06:20;;;;;;;15.00;4.60;;;10.30;91.40;;;;;;5116958;28;20087;-73
2022/11/26 12:09:26;;;;;;;13.02;4.10;;;10.40;91.80;;;;;;5116899;28;20028;-73
2022/11/26 12:11:59;;;;;;;13.45;4.57;;;10.50;91.00;;;;;;5076489;28;20092;-74
2022/11/26 12:14:47;;;;;;;12.88;4.70;;;10.60;90.90;;;;;;5115768;28;20036;-74
2022/11/26 12:17:20;;;;;;;11.73;4.50;;;10.70;90.90;;;;;;5102336;28;20127;-73
2022/11/26 12:19:48;;;;;;;;;;;10.80;90.60;;;;;;5116963;28;20056;-74
2022/11/26 12:22:25;;;;;;;9.98;3.40;;;10.80;90.30;;;;;;5116683;28;19911;-73
2022/11/26 12:24:54;;;;;;;10.63;3.97;;;10.80;90.10;;;;;;5116778;28;20027;-74
2022/11/26 12:27:36;;;;;;;15.00;3.83;;;10.80;90.00;;;;;;5116566;28;20024;-73
2022/11/26 12:30:13;;;;;;;13.55;4.25;;;10.80;90.00;;;;;;5116641;28;20050;-73
2022/11/26 12:33:02;;;;;;;12.23;3.97;;;10.90;90.10;;;;;;5116539;28;20020;-74
2022/11/26 12:35:42;;;;;;;20.17;4.15;;;10.90;90.00;;;;;;5114685;28;20035;-74
2022/11/26 12:38:29;;;;;;;14.43;3.67;;;10.90;90.00;;;;;;5116544;28;20395;-74
2022/11/26 12:41:03;;;;;;;15.48;4.43;;;10.90;89.70;;;;;;5115495;28;20079;-74
2022/11/26 12:43:57;;;;;;;12.93;3.45;;;10.80;89.10;;;;;;5116287;28;20097;-74
2022/11/26 12:46:52;;;;;;;12.82;4.03;;;10.80;88.80;;;;;;5116295;28;20020;-73
2022/11/26 12:49:29;;;;;;;11.40;3.28;;;10.70;89.50;;;;;;5106976;28;20032;-74
2022/11/26 12:52:13;;;;;;;10.80;3.72;;;10.70;89.60;;;;;;5115266;28;20491;-74
2022/11/26 12:54:47;;;;;;;15.15;3.97;;;10.60;89.80;;;;;;5115050;28;20024;-73
2022/11/26 12:57:30;;;;;;;12.95;3.80;;;10.60;90.00;;;;;;5116100;28;20023;-74
2022/11/26 13:00:05;;;;;;;11.48;3.97;;;10.60;90.20;;;;;;5115044;28;20024;-74